Time;durP1;ratioP1;P1;durP2;ratioP2;P2;SDS_P1;SDS_P2;PMS_P1;PMS_P2;Temp;Humidity;BMP_temperature;BMP_pressure;BME280_temperature;BME280_humidity;BME280_pressure;Samples;Min_cycle;Max_cycle;Signal;HPM_P1;HPM_P2
2022/07/31 00:02:12;;;;;;;7.40;4.03;;;;;;;19.09;59.73;98981.75;5070714;28;20090;-68
2022/07/31 00:04:39;;;;;;;4.97;4.25;;;;;;;19.11;60.17;98977.09;5087655;28;20056;-68
2022/07/31 00:07:06;;;;;;;5.53;5.00;;;;;;;19.13;59.94;98975.09;5087940;28;20064;-68
2022/07/31 00:09:35;;;;;;;4.50;3.92;;;;;;;19.06;59.38;98984.72;5088246;28;20057;-68
2022/07/31 00:12:02;;;;;;;4.45;4.03;;;;;;;19.04;60.26;98967.91;5088303;28;20044;-68
2022/07/31 00:14:29;;;;;;;4.32;3.92;;;;;;;19.06;60.05;98970.47;5087522;28;20143;-68
2022/07/31 00:16:57;;;;;;;7.15;5.10;;;;;;;19.01;60.00;98972.75;5088011;28;20056;-68
2022/07/31 00:19:24;;;;;;;5.28;4.78;;;;;;;18.77;60.36;98947.25;5087629;28;20110;-69
2022/07/31 00:21:51;;;;;;;5.55;5.03;;;;;;;18.95;59.71;98976.84;5087595;28;20186;-66
2022/07/31 00:24:18;;;;;;;7.75;5.68;;;;;;;18.98;59.91;98976.56;5087901;28;20189;-66
2022/07/31 00:26:47;;;;;;;6.03;5.40;;;;;;;18.99;59.87;98982.78;5088096;28;20110;-67
2022/07/31 00:29:14;;;;;;;5.60;4.85;;;;;;;18.95;59.80;98970.66;5087890;28;20110;-68
2022/07/31 00:31:42;;;;;;;4.82;4.30;;;;;;;18.98;59.44;98976.56;5087364;28;20064;-68
2022/07/31 00:34:10;;;;;;;6.65;4.65;;;;;;;18.95;59.42;98976.00;5087262;28;20049;-68
2022/07/31 00:36:37;;;;;;;6.35;4.32;;;;;;;18.76;59.55;98967.03;5087734;28;20106;-68
2022/07/31 00:39:04;;;;;;;7.28;5.53;;;;;;;18.92;59.81;98985.22;5086633;28;20083;-69
2022/07/31 00:41:39;;;;;;;6.47;5.03;;;;;;;18.92;59.09;99010.22;5087640;28;20105;-68
2022/07/31 00:44:08;;;;;;;6.28;5.63;;;;;;;18.91;59.98;98991.56;5087583;28;20184;-68
2022/07/31 00:46:35;;;;;;;6.47;5.50;;;;;;;18.90;59.67;98982.66;5087651;28;20340;-68
2022/07/31 00:49:04;;;;;;;7.00;4.90;;;;;;;18.92;59.29;98979.84;5086959;28;20056;-68
2022/07/31 00:51:31;;;;;;;6.50;5.05;;;;;;;18.91;59.22;98992.41;5087495;28;20106;-68
2022/07/31 00:53:59;;;;;;;6.40;4.75;;;;;;;18.79;59.53;98982.84;5070164;28;20057;-67
2022/07/31 00:56:26;;;;;;;5.03;4.53;;;;;;;18.82;59.97;98990.59;5087094;28;20057;-68
2022/07/31 00:58:54;;;;;;;7.22;6.40;;;;;;;18.73;59.98;98964.63;5087397;28;20056;-68
2022/07/31 01:01:22;;;;;;;6.28;4.35;;;;;;;18.85;59.88;98974.22;5087303;28;20079;-68
2022/07/31 01:03:50;;;;;;;5.32;4.47;;;;;;;18.75;59.46;98965.34;5087429;28;20044;-68
2022/07/31 01:06:17;;;;;;;5.32;4.72;;;;;;;18.03;59.53;98855.06;5087139;28;20304;-68
2022/07/31 01:08:44;;;;;;;5.22;4.55;;;;;;;18.67;59.65;98972.44;5087002;28;20106;-68
2022/07/31 01:11:17;;;;;;;5.78;5.10;;;;;;;18.28;59.87;98900.88;5087041;28;20056;-69
2022/07/31 01:13:49;;;;;;;6.57;4.50;;;;;;;18.42;59.58;98931.78;5087111;28;20110;-69
2022/07/31 01:16:19;;;;;;;4.63;3.90;;;;;;;18.04;59.70;98836.13;5070181;28;20047;-69
2022/07/31 01:18:50;;;;;;;5.63;5.03;;;;;;;18.83;59.90;98978.03;5087140;28;20203;-69
2022/07/31 01:21:28;;;;;;;6.57;4.88;;;;;;;18.83;59.58;98988.78;5087112;28;20100;-68
2022/07/31 01:24:27;;;;;;;5.53;4.43;;;;;;;18.79;59.68;98985.53;5087210;28;20063;-68
2022/07/31 01:27:03;;;;;;;5.47;4.85;;;;;;;16.92;60.13;98662.63;5069469;28;20060;-69
2022/07/31 01:29:41;;;;;;;7.15;4.45;;;;;;;18.82;59.83;98987.91;5087217;28;20036;-68
2022/07/31 01:32:13;;;;;;;4.78;4.32;;;;;;;18.83;59.75;98978.88;5086617;28;20312;-68
2022/07/31 01:34:46;;;;;;;6.00;5.13;;;;;;;18.88;59.71;98981.13;5086387;28;20052;-68
2022/07/31 01:37:19;;;;;;;6.70;4.70;;;;;;;18.79;59.96;98982.84;5069019;28;20041;-69
2022/07/31 01:39:52;;;;;;;5.70;4.70;;;;;;;18.79;59.62;98965.88;5069543;28;20250;-68
2022/07/31 01:42:21;;;;;;;5.50;4.43;;;;;;;18.71;59.98;98977.34;5086666;28;20040;-68
2022/07/31 01:44:54;;;;;;;4.82;4.13;;;;;;;18.59;59.69;98971.31;5086575;28;20114;-68
2022/07/31 01:47:23;;;;;;;4.95;4.22;;;;;;;18.69;59.62;98971.28;5085925;28;20276;-68
2022/07/31 01:49:53;;;;;;;4.93;4.40;;;;;;;18.12;59.61;98883.69;5085038;28;20060;-68
2022/07/31 01:52:22;;;;;;;4.40;4.00;;;;;;;18.72;59.45;98983.56;5086090;28;20078;-68
2022/07/31 01:54:51;;;;;;;5.28;4.78;;;;;;;18.71;59.52;98982.72;5086215;28;20108;-68
2022/07/31 01:57:22;;;;;;;5.50;4.00;;;;;;;18.71;58.94;98982.72;5086283;28;20082;-68
2022/07/31 01:59:53;;;;;;;4.28;3.53;;;;;;;18.29;59.09;98909.78;5086199;28;20101;-68
2022/07/31 02:02:21;;;;;;;4.32;3.80;;;;;;;18.13;59.29;98906.84;5085857;28;20166;-68
2022/07/31 02:04:50;;;;;;;4.22;3.83;;;;;;;18.61;59.16;98984.59;5085790;28;20255;-68
2022/07/31 02:07:18;;;;;;;5.55;4.13;;;;;;;18.58;58.89;98976.81;5085783;28;20057;-68
2022/07/31 02:09:47;;;;;;;4.65;4.15;;;;;;;18.55;59.19;98986.00;5085771;28;20279;-69
2022/07/31 02:12:15;;;;;;;5.00;4.47;;;;;;;18.55;58.97;98995.91;5085743;28;20397;-68
2022/07/31 02:14:43;;;;;;;5.57;4.38;;;;;;;18.46;59.13;98980.63;5085687;28;20049;-68
2022/07/31 02:17:13;;;;;;;7.68;4.80;;;;;;;18.48;59.23;98990.22;5085379;28;20114;-68
2022/07/31 02:19:41;;;;;;;5.15;4.10;;;;;;;18.48;58.80;98992.06;5085176;28;20056;-68
2022/07/31 02:22:08;;;;;;;5.28;3.92;;;;;;;18.48;59.20;98992.91;5085830;28;20037;-68
2022/07/31 02:24:38;;;;;;;4.53;4.13;;;;;;;18.51;59.04;98991.78;5067811;28;20040;-68
2022/07/31 02:27:07;;;;;;;4.88;4.05;;;;;;;18.47;59.32;98990.38;5085719;28;20121;-68
2022/07/31 02:29:34;;;;;;;4.43;4.00;;;;;;;18.49;59.01;98983.88;5085597;28;20056;-68
2022/07/31 02:32:04;;;;;;;7.03;4.60;;;;;;;18.51;59.03;98986.41;5067731;28;20044;-68
2022/07/31 02:34:34;;;;;;;5.75;4.80;;;;;;;18.52;58.94;98993.50;5085746;28;20094;-68
2022/07/31 02:37:03;;;;;;;6.70;4.40;;;;;;;18.44;59.57;98982.59;5085745;28;20040;-68
2022/07/31 02:39:32;;;;;;;5.55;5.05;;;;;;;18.47;59.62;98982.31;5085731;28;20185;-67
2022/07/31 02:42:00;;;;;;;5.88;4.30;;;;;;;18.41;59.16;98986.41;5085448;28;20098;-68
2022/07/31 02:44:31;;;;;;;5.72;4.90;;;;;;;18.46;59.45;98969.91;5085061;28;20064;-67
2022/07/31 02:47:01;;;;;;;5.25;4.68;;;;;;;18.46;59.43;98975.25;5084988;28;20109;-68
2022/07/31 02:49:29;;;;;;;6.22;4.68;;;;;;;18.40;59.76;98986.56;5085161;28;20312;-67
2022/07/31 02:51:58;;;;;;;5.18;4.68;;;;;;;18.26;59.48;98958.34;5085405;28;20110;-68
2022/07/31 02:54:25;;;;;;;7.43;4.50;;;;;;;18.43;59.50;98980.91;5085484;28;20052;-68
2022/07/31 02:56:53;;;;;;;4.93;4.43;;;;;;;18.36;59.63;98975.28;5084961;28;20295;-68
2022/07/31 02:59:21;;;;;;;4.93;4.05;;;;;;;18.36;59.72;98980.63;5085272;28;20114;-68
2022/07/31 03:01:48;;;;;;;6.25;5.22;;;;;;;18.16;59.71;98944.09;5085063;28;20122;-67
2022/07/31 03:04:16;;;;;;;5.88;4.80;;;;;;;18.41;59.81;98980.22;5085293;28;20086;-68
2022/07/31 03:06:43;;;;;;;5.30;4.80;;;;;;;18.38;59.79;98981.34;5085205;28;20060;-68
2022/07/31 03:09:11;;;;;;;5.80;4.88;;;;;;;18.41;59.73;98991.78;5085038;28;20064;-68
2022/07/31 03:11:39;;;;;;;7.18;4.85;;;;;;;18.42;59.87;98992.63;5085352;28;20062;-68
2022/07/31 03:14:09;;;;;;;6.00;5.40;;;;;;;18.44;59.87;98986.13;5085313;28;20254;-68
2022/07/31 03:16:37;;;;;;;6.20;5.60;;;;;;;18.41;60.15;98985.56;5085057;28;20056;-67
2022/07/31 03:19:05;;;;;;;6.97;5.72;;;;;;;18.39;60.41;98995.59;5084685;28;20117;-68
2022/07/31 03:21:32;;;;;;;6.55;5.32;;;;;;;18.38;60.14;98991.22;5085390;28;20300;-68
2022/07/31 03:24:01;;;;;;;6.03;5.43;;;;;;;18.44;60.03;98993.34;5084737;28;20377;-68
2022/07/31 03:26:30;;;;;;;5.75;4.65;;;;;;;18.46;59.87;99000.25;5084824;28;20067;-68
2022/07/31 03:28:59;;;;;;;5.10;4.45;;;;;;;18.33;59.80;98974.72;5084643;28;20052;-68
2022/07/31 03:31:27;;;;;;;6.20;5.43;;;;;;;18.29;59.89;98984.88;5084969;28;20181;-68
2022/07/31 03:33:54;;;;;;;6.80;5.43;;;;;;;18.41;60.02;98999.84;5084903;28;20243;-68
2022/07/31 03:36:21;;;;;;;6.60;5.43;;;;;;;18.24;59.95;98990.66;5084463;28;20056;-68
2022/07/31 03:38:49;;;;;;;6.18;4.95;;;;;;;18.42;60.46;98998.00;5084902;28;20122;-68
2022/07/31 03:41:16;;;;;;;7.82;5.45;;;;;;;18.45;60.05;99005.75;5084918;28;20102;-68
2022/07/31 03:43:46;;;;;;;5.72;5.22;;;;;;;18.40;60.52;99018.75;5084522;28;20370;-68
2022/07/31 03:46:15;;;;;;;7.57;5.40;;;;;;;18.42;59.93;99014.09;5084528;28;20102;-68
2022/07/31 03:48:42;;;;;;;7.75;5.63;;;;;;;18.40;59.97;99013.41;5084550;28;20082;-68
2022/07/31 03:51:10;;;;;;;6.70;5.10;;;;;;;18.44;60.04;99009.44;5084555;28;20053;-68
2022/07/31 03:53:38;;;;;;;6.13;4.93;;;;;;;18.47;60.01;99017.19;5084673;28;20263;-68
2022/07/31 03:56:06;;;;;;;6.38;5.35;;;;;;;18.38;60.38;99012.69;5084671;28;20052;-68
2022/07/31 03:58:34;;;;;;;5.95;4.72;;;;;;;17.87;59.95;98936.06;5084650;28;20259;-68
2022/07/31 04:01:03;;;;;;;8.25;5.68;;;;;;;18.44;60.08;99017.47;5084730;28;20316;-68
2022/07/31 04:03:31;;;;;;;7.65;5.72;;;;;;;18.43;59.95;99016.63;5084731;28;20316;-67
2022/07/31 04:05:59;;;;;;;6.25;5.25;;;;;;;18.42;60.04;99027.50;5084443;28;20060;-68
2022/07/31 04:08:26;;;;;;;6.00;5.15;;;;;;;18.44;60.33;99025.53;5084106;28;20259;-68
2022/07/31 04:10:53;;;;;;;5.80;5.20;;;;;;;18.46;60.51;99027.09;5084206;28;20056;-68
2022/07/31 04:13:20;;;;;;;6.00;5.40;;;;;;;18.49;60.02;99026.81;5085238;28;20099;-67
2022/07/31 04:15:48;;;;;;;8.15;6.10;;;;;;;18.04;60.28;98956.78;5087972;28;20106;-67
2022/07/31 04:18:16;;;;;;;7.97;5.78;;;;;;;18.35;59.94;98994.19;5087935;28;20060;-68
2022/07/31 04:20:43;;;;;;;6.68;5.95;;;;;;;18.45;60.34;99032.59;5088241;28;20102;-67
2022/07/31 04:23:10;;;;;;;5.78;5.18;;;;;;;18.46;59.88;99034.28;5087845;28;20263;-68
2022/07/31 04:25:38;;;;;;;6.78;5.15;;;;;;;18.48;59.60;99032.31;5087738;28;20105;-67
2022/07/31 04:28:05;;;;;;;6.88;5.75;;;;;;;18.50;59.52;99039.22;5087918;28;20059;-68
2022/07/31 04:30:32;;;;;;;5.78;5.18;;;;;;;18.49;59.59;99045.59;5087482;28;20281;-68
2022/07/31 04:32:59;;;;;;;5.72;5.22;;;;;;;18.51;60.05;99037.38;5087784;28;20060;-68
2022/07/31 04:35:28;;;;;;;5.93;5.30;;;;;;;18.50;60.04;99051.78;5087647;28;20243;-68
2022/07/31 04:37:55;;;;;;;5.65;5.00;;;;;;;18.48;60.18;99053.78;5087693;28;20064;-68
2022/07/31 04:40:25;;;;;;;5.75;5.20;;;;;;;17.39;59.80;98880.56;5087597;28;20057;-68
2022/07/31 04:42:52;;;;;;;5.50;5.00;;;;;;;18.30;60.28;99028.66;5087578;28;20109;-68
2022/07/31 04:45:19;;;;;;;6.43;4.78;;;;;;;18.52;59.89;99050.69;5087132;28;20056;-68
2022/07/31 04:47:46;;;;;;;5.65;4.93;;;;;;;18.54;59.47;99047.88;5087445;28;20052;-68
2022/07/31 04:50:14;;;;;;;6.15;4.90;;;;;;;18.41;59.55;99031.19;5067430;28;20122;-68
2022/07/31 04:52:42;;;;;;;5.90;5.30;;;;;;;18.53;59.87;99041.66;5067397;28;20106;-68
2022/07/31 04:55:10;;;;;;;6.72;5.65;;;;;;;18.56;59.93;99035.16;5067079;28;20118;-68
2022/07/31 04:57:37;;;;;;;6.32;5.47;;;;;;;18.40;59.67;99032.16;5067006;28;20374;-68
2022/07/31 05:00:06;;;;;;;6.18;5.28;;;;;;;18.59;59.50;99042.94;5067314;28;20061;-68
2022/07/31 05:02:33;;;;;;;6.00;4.95;;;;;;;18.59;59.62;99059.03;5067345;28;20057;-67
2022/07/31 05:05:00;;;;;;;6.57;5.80;;;;;;;18.53;59.47;99052.38;5067278;28;20248;-67
2022/07/31 05:07:27;;;;;;;6.55;5.20;;;;;;;18.53;59.93;99046.19;5067024;28;20220;-67
2022/07/31 05:09:57;;;;;;;7.95;5.57;;;;;;;18.59;59.52;99062.56;5066970;28;20057;-68
2022/07/31 05:12:24;;;;;;;7.40;5.65;;;;;;;18.59;59.88;99053.66;5067168;28;20316;-68
2022/07/31 05:14:52;;;;;;;5.95;5.35;;;;;;;18.63;59.56;99063.13;5067226;28;20056;-68
2022/07/31 05:17:19;;;;;;;6.07;5.30;;;;;;;18.65;59.86;99060.28;5066773;28;20052;-68
2022/07/31 05:19:46;;;;;;;4.90;4.25;;;;;;;18.66;59.80;99062.84;5067052;28;20110;-68
2022/07/31 05:22:13;;;;;;;6.63;5.43;;;;;;;18.69;59.39;99077.81;5067041;28;20057;-68
2022/07/31 05:24:41;;;;;;;5.10;4.60;;;;;;;18.70;59.06;99066.94;5066669;28;20057;-68
2022/07/31 05:27:10;;;;;;;5.85;4.53;;;;;;;18.69;59.01;99072.44;5066851;28;20316;-68
2022/07/31 05:29:37;;;;;;;5.78;5.15;;;;;;;17.81;58.82;98921.38;5066618;28;20079;-68
2022/07/31 05:32:05;;;;;;;5.85;5.15;;;;;;;18.33;59.20;99014.94;5066407;28;20061;-68
2022/07/31 05:34:32;;;;;;;5.47;4.97;;;;;;;18.71;58.77;99076.66;5066726;28;20057;-68
2022/07/31 05:37:00;;;;;;;6.88;5.15;;;;;;;18.06;58.48;98973.59;5066460;28;20057;-67
2022/07/31 05:39:28;;;;;;;5.28;4.78;;;;;;;18.72;58.55;99064.09;5065705;28;20053;-68
2022/07/31 05:41:55;;;;;;;6.15;4.47;;;;;;;18.77;58.77;99069.88;5066470;28;20064;-67
2022/07/31 05:44:24;;;;;;;5.53;5.03;;;;;;;18.81;58.51;99073.97;5066391;28;20347;-68
2022/07/31 05:46:51;;;;;;;5.45;4.63;;;;;;;18.78;58.47;99075.13;5066533;28;20053;-67
2022/07/31 05:49:19;;;;;;;5.47;4.97;;;;;;;18.83;58.10;99064.78;5078211;28;20067;-68
2022/07/31 05:51:46;;;;;;;9.45;5.13;;;;;;;18.84;58.29;99069.16;5086083;28;20056;-68
2022/07/31 05:54:13;;;;;;;5.20;4.70;;;;;;;18.89;58.35;99058.84;5085894;28;20078;-67
2022/07/31 05:56:44;;;;;;;6.32;4.70;;;;;;;18.87;57.78;99055.47;5086206;28;20078;-68
2022/07/31 05:59:11;;;;;;;5.32;4.82;;;;;;;18.96;57.72;99071.69;5086798;28;20063;-67
2022/07/31 06:01:40;;;;;;;6.93;5.22;;;;;;;19.00;57.75;99062.34;5085689;28;20056;-67
2022/07/31 06:04:07;;;;;;;6.20;4.93;;;;;;;18.92;57.83;99053.19;5085737;28;20114;-67
2022/07/31 06:06:34;;;;;;;5.63;5.00;;;;;;;19.01;57.94;99074.78;5085750;28;20052;-67
2022/07/31 06:09:01;;;;;;;6.47;4.93;;;;;;;19.05;57.73;99062.75;5085840;28;20056;-67
2022/07/31 06:11:28;;;;;;;5.60;4.50;;;;;;;19.06;57.60;99064.47;5085739;28;20065;-67
2022/07/31 06:13:55;;;;;;;5.25;4.40;;;;;;;19.09;57.54;99064.16;5085454;28;20060;-67
2022/07/31 06:16:22;;;;;;;5.38;4.80;;;;;;;19.13;57.73;99062.88;5085394;28;20098;-67
2022/07/31 06:18:51;;;;;;;5.93;4.47;;;;;;;19.19;57.15;99063.16;5085604;28;20053;-67
2022/07/31 06:21:18;;;;;;;6.10;5.22;;;;;;;19.02;57.33;99047.78;5085316;28;20114;-67
2022/07/31 06:23:45;;;;;;;6.53;5.18;;;;;;;19.18;57.61;99065.97;5085609;28;20243;-67
2022/07/31 06:26:12;;;;;;;6.40;5.10;;;;;;;19.21;57.65;99065.69;5085566;28;20106;-67
2022/07/31 06:28:40;;;;;;;6.50;4.95;;;;;;;19.22;57.38;99065.53;5085513;28;20060;-67
2022/07/31 06:31:07;;;;;;;6.35;4.93;;;;;;;19.27;57.20;99078.53;5085359;28;20358;-67
2022/07/31 06:33:34;;;;;;;8.02;4.57;;;;;;;19.17;57.50;99038.28;5085409;28;20259;-67
2022/07/31 06:36:03;;;;;;;4.88;4.35;;;;;;;19.37;57.11;99068.59;5084934;28;20048;-67
2022/07/31 06:38:30;;;;;;;6.32;4.72;;;;;;;19.41;56.97;99069.19;5085583;28;20060;-67
2022/07/31 06:40:57;;;;;;;5.45;4.28;;;;;;;19.49;56.87;99061.22;5085337;28;20114;-67
2022/07/31 06:43:24;;;;;;;6.43;5.47;;;;;;;19.54;56.39;99064.31;5085299;28;20117;-67
2022/07/31 06:45:51;;;;;;;5.95;4.95;;;;;;;19.59;56.26;99059.34;5085149;28;20052;-67
2022/07/31 06:48:19;;;;;;;5.85;4.50;;;;;;;19.26;56.02;99000.78;5084811;28;20060;-67
2022/07/31 06:50:47;;;;;;;7.13;4.53;;;;;;;19.66;55.75;99059.59;5085277;28;20048;-67
2022/07/31 06:53:16;;;;;;;5.75;5.00;;;;;;;19.75;55.58;99053.31;5085419;28;20056;-67
2022/07/31 06:55:43;;;;;;;7.32;5.47;;;;;;;19.88;55.65;99059.22;5085070;28;20312;-67
2022/07/31 06:58:10;;;;;;;8.43;5.30;;;;;;;19.94;55.51;99055.09;5085189;28;20309;-67
2022/07/31 07:00:37;;;;;;;6.18;5.15;;;;;;;19.98;54.26;99059.16;5084859;28;20052;-67
2022/07/31 07:03:04;;;;;;;5.28;4.78;;;;;;;19.95;54.79;99038.78;5085099;28;20122;-67
2022/07/31 07:05:31;;;;;;;6.20;4.45;;;;;;;20.06;54.58;99022.44;5085080;28;20057;-67
2022/07/31 07:07:59;;;;;;;7.53;5.25;;;;;;;20.31;53.92;99055.00;5085233;28;20105;-67
2022/07/31 07:10:27;;;;;;;7.88;5.05;;;;;;;20.45;53.32;99055.28;5084793;28;20056;-67
2022/07/31 07:12:54;;;;;;;5.00;4.47;;;;;;;20.76;53.26;99049.50;5084881;28;20060;-67
2022/07/31 07:15:21;;;;;;;4.78;3.85;;;;;;;20.67;51.72;99020.81;5084670;28;20102;-67
2022/07/31 07:17:49;;;;;;;6.95;5.05;;;;;;;20.97;51.42;99049.97;5084974;28;20060;-67
2022/07/31 07:20:16;;;;;;;7.97;4.20;;;;;;;21.10;51.57;99047.75;5084878;28;20064;-67
2022/07/31 07:22:43;;;;;;;7.13;4.72;;;;;;;21.14;50.01;99026.72;5084635;28;20114;-67
2022/07/31 07:25:11;;;;;;;5.28;4.78;;;;;;;21.65;50.39;99052.75;5084826;28;20111;-67
2022/07/31 07:27:39;;;;;;;7.72;5.32;;;;;;;21.76;49.94;99051.59;5084852;28;20087;-67
2022/07/31 07:30:08;;;;;;;5.45;4.43;;;;;;;21.85;49.23;99047.13;5084959;28;20113;-67
2022/07/31 07:32:35;;;;;;;6.40;4.38;;;;;;;22.07;48.46;99041.09;5084756;28;20064;-67
2022/07/31 07:35:03;;;;;;;6.32;4.40;;;;;;;22.39;49.29;99041.16;5084457;28;20056;-67
2022/07/31 07:37:31;;;;;;;5.35;4.32;;;;;;;21.80;48.57;98912.75;5084793;28;20057;-67
2022/07/31 07:39:58;;;;;;;7.20;4.43;;;;;;;22.73;47.77;99034.81;5084749;28;20060;-67
2022/07/31 07:42:26;;;;;;;9.77;4.75;;;;;;;22.75;46.93;99040.03;5084811;28;20122;-67
2022/07/31 07:44:54;;;;;;;6.00;5.18;;;;;;;22.91;46.93;99032.78;5084740;28;20056;-67
2022/07/31 07:47:21;;;;;;;5.10;4.50;;;;;;;22.77;47.12;99008.31;5084210;28;20114;-67
2022/07/31 07:49:49;;;;;;;5.63;4.68;;;;;;;22.99;47.91;99031.91;5087816;28;20053;-68
2022/07/31 07:52:16;;;;;;;6.55;4.75;;;;;;;22.98;47.86;99031.06;5088423;28;20118;-67
2022/07/31 07:54:43;;;;;;;4.93;4.45;;;;;;;23.22;47.32;99030.16;5088062;28;20082;-67
2022/07/31 07:57:14;;;;;;;7.68;4.70;;;;;;;23.55;46.50;99024.69;5087857;28;20122;-67
2022/07/31 07:59:41;;;;;;;6.32;4.93;;;;;;;23.73;46.72;99030.69;5088179;28;20056;-68
2022/07/31 08:02:11;;;;;;;5.28;4.78;;;;;;;23.73;45.66;98991.97;5087833;28;20057;-67
2022/07/31 08:04:38;;;;;;;6.55;5.10;;;;;;;23.92;46.03;99016.72;5088247;28;20056;-67
2022/07/31 08:07:05;;;;;;;6.75;4.00;;;;;;;24.04;45.77;99017.19;5087757;28;20177;-67
2022/07/31 08:09:33;;;;;;;5.07;4.40;;;;;;;24.02;45.64;99010.28;5087743;28;20052;-68
2022/07/31 08:12:00;;;;;;;6.68;4.20;;;;;;;24.06;46.39;99009.75;5088033;28;20056;-67
2022/07/31 08:14:27;;;;;;;5.13;4.53;;;;;;;24.18;45.65;99010.16;5088085;28;20057;-68
2022/07/31 08:16:55;;;;;;;5.05;4.32;;;;;;;24.37;45.42;99009.69;5087732;28;20102;-68
2022/07/31 08:19:23;;;;;;;6.40;4.95;;;;;;;23.89;44.57;98902.56;5087749;28;20110;-68
2022/07/31 08:21:50;;;;;;;7.53;6.22;;;;;;;24.54;44.87;99008.53;5087846;28;20197;-68
2022/07/31 08:24:18;;;;;;;6.00;5.07;;;;;;;24.36;44.36;98999.88;5087876;28;20110;-67
2022/07/31 08:29:30;;;;;;;5.50;5.00;;;;;;;24.35;44.89;98973.81;5087924;28;20063;-67
2022/07/31 08:31:57;;;;;;;7.07;4.93;;;;;;;24.50;44.62;98993.66;5087649;28;20064;-67
2022/07/31 08:34:25;;;;;;;5.18;4.03;;;;;;;24.68;44.27;98989.81;5087888;28;20040;-67
2022/07/31 08:36:52;;;;;;;6.72;5.75;;;;;;;24.71;43.97;98995.72;5087812;28;20053;-67
2022/07/31 08:39:20;;;;;;;9.50;4.80;;;;;;;24.62;43.77;98939.88;5087372;28;20114;-67
2022/07/31 08:41:47;;;;;;;5.30;4.63;;;;;;;25.00;43.95;99002.22;5087632;28;20102;-68
2022/07/31 08:44:14;;;;;;;5.65;4.13;;;;;;;25.03;43.48;98988.31;5087540;28;20102;-67
2022/07/31 08:46:41;;;;;;;6.75;4.15;;;;;;;25.24;43.28;98996.56;5087281;28;20102;-68
2022/07/31 08:49:10;;;;;;;6.25;3.95;;;;;;;25.20;42.60;98981.69;5086936;28;20052;-67
2022/07/31 08:51:39;;;;;;;5.20;4.15;;;;;;;25.37;42.11;98995.94;5087672;28;20041;-67
2022/07/31 08:54:09;;;;;;;5.68;4.78;;;;;;;25.53;43.19;98999.28;5086969;28;20064;-67
2022/07/31 08:56:37;;;;;;;5.55;4.10;;;;;;;25.69;42.50;99003.66;5088026;28;20093;-68
2022/07/31 08:59:05;;;;;;;8.02;3.90;;;;;;;25.79;42.31;99009.63;5086415;28;20057;-68
2022/07/31 09:01:33;;;;;;;4.97;3.65;;;;;;;25.83;41.87;98993.81;5087068;28;20059;-68
2022/07/31 09:04:01;;;;;;;9.13;4.20;;;;;;;25.91;42.17;98994.53;5087558;28;20129;-68
2022/07/31 09:06:28;;;;;;;5.45;3.67;;;;;;;25.73;40.77;98996.81;5086724;28;20052;-68
2022/07/31 09:08:57;;;;;;;5.70;4.45;;;;;;;25.84;40.93;99003.63;5086591;28;20056;-68
2022/07/31 09:11:24;;;;;;;5.35;4.85;;;;;;;25.80;41.88;98992.31;5086933;28;20293;-68
2022/07/31 09:13:55;;;;;;;4.70;3.78;;;;;;;25.86;40.98;98988.84;5086615;28;20052;-68
2022/07/31 09:16:23;;;;;;;3.90;3.50;;;;;;;25.74;40.74;99003.94;5086818;28;20114;-68
2022/07/31 09:18:56;;;;;;;6.70;5.30;;;;;;;25.69;41.50;99000.09;5086555;28;20087;-67
2022/07/31 09:21:24;;;;;;;;;;;;;;;25.52;41.25;99000.31;5086960;28;20102;-68
2022/07/31 09:23:53;;;;;;;4.38;3.83;;;;;;;25.69;42.07;98994.69;5086632;28;20095;-68
2022/07/31 09:26:33;;;;;;;4.60;3.78;;;;;;;25.74;40.24;98984.09;5086342;28;20057;-68
2022/07/31 09:29:02;;;;;;;4.95;3.67;;;;;;;25.75;40.20;98969.50;5086641;28;20060;-68
2022/07/31 09:31:32;;;;;;;5.38;3.67;;;;;;;25.82;39.92;98979.38;5086535;28;20114;-68
2022/07/31 09:33:59;;;;;;;4.70;3.60;;;;;;;25.89;40.11;98965.88;5086947;28;20040;-68
2022/07/31 09:36:27;;;;;;;4.68;3.92;;;;;;;25.37;40.20;98933.53;5086406;28;20255;-68
2022/07/31 09:38:56;;;;;;;5.65;4.00;;;;;;;25.80;38.99;98976.03;5086456;28;20231;-68
2022/07/31 09:41:25;;;;;;;5.85;3.85;;;;;;;25.78;38.43;98956.38;5086593;28;20053;-68
2022/07/31 09:43:58;;;;;;;4.50;3.10;;;;;;;25.67;38.38;98935.16;5068442;28;20263;-68
2022/07/31 09:46:26;;;;;;;4.65;3.55;;;;;;;25.93;39.58;98964.47;5085922;28;20049;-68
2022/07/31 09:48:56;;;;;;;4.38;3.70;;;;;;;25.70;38.83;98909.50;5085882;28;20106;-68
2022/07/31 09:51:23;;;;;;;4.20;3.20;;;;;;;25.85;38.81;98961.88;5085733;28;20143;-67
2022/07/31 09:53:52;;;;;;;4.43;3.28;;;;;;;25.68;38.91;98942.28;5086080;28;20060;-68
2022/07/31 09:56:31;;;;;;;4.60;3.30;;;;;;;25.97;38.34;98971.22;5086808;28;20224;-68
2022/07/31 09:58:59;;;;;;;5.75;3.60;;;;;;;25.94;39.46;98959.88;5086083;28;20332;-68
2022/07/31 10:01:27;;;;;;;3.90;2.83;;;;;;;25.87;38.90;98938.94;5085916;28;20064;-68
2022/07/31 10:04:00;;;;;;;6.05;3.63;;;;;;;26.02;38.63;98957.09;5085888;28;20094;-68
2022/07/31 10:06:31;;;;;;;5.18;3.17;;;;;;;26.05;39.15;98940.41;5068199;28;20316;-67
2022/07/31 10:08:59;;;;;;;4.88;3.05;;;;;;;26.16;38.79;98950.75;5085667;28;20102;-68
2022/07/31 10:11:30;;;;;;;5.32;3.30;;;;;;;26.25;38.43;98956.88;5084700;28;20316;-68
2022/07/31 10:14:00;;;;;;;6.00;3.63;;;;;;;26.30;37.25;98951.72;5085377;28;20267;-68
2022/07/31 10:16:31;;;;;;;3.72;2.97;;;;;;;26.10;37.02;98927.94;5085197;28;20056;-68
2022/07/31 10:19:00;;;;;;;5.05;2.60;;;;;;;26.06;37.02;98945.63;5085750;28;20063;-68
2022/07/31 10:21:33;;;;;;;4.85;3.15;;;;;;;26.00;38.50;98949.13;5085201;28;20056;-69
2022/07/31 10:24:03;;;;;;;3.73;2.70;;;;;;;25.98;39.54;98953.06;5085106;28;20064;-69
2022/07/31 10:26:32;;;;;;;5.05;3.72;;;;;;;25.96;37.94;98941.53;5085083;28;20053;-68
2022/07/31 10:29:02;;;;;;;6.72;4.25;;;;;;;26.01;39.64;98941.81;5085439;28;20223;-68
2022/07/31 10:31:30;;;;;;;3.30;2.80;;;;;;;26.03;38.65;98937.03;5085518;28;20045;-69
2022/07/31 10:33:59;;;;;;;3.72;2.67;;;;;;;25.98;39.18;98934.06;5085341;28;20102;-69
2022/07/31 10:36:32;;;;;;;6.40;2.83;;;;;;;26.02;38.62;98932.66;5085645;28;20089;-68
2022/07/31 10:39:03;;;;;;;4.80;3.10;;;;;;;26.09;38.42;98930.84;5085615;28;20266;-67
2022/07/31 10:41:46;;;;;;;3.72;3.10;;;;;;;26.16;37.01;98934.44;5085412;28;20354;-68
2022/07/31 10:44:22;;;;;;;4.20;3.38;;;;;;;26.17;37.38;98925.28;5085368;28;20346;-68
2022/07/31 10:46:50;;;;;;;4.20;3.00;;;;;;;26.24;37.92;98920.75;5084546;28;20056;-68
2022/07/31 10:49:17;;;;;;;4.85;2.40;;;;;;;26.37;37.23;98950.72;5084970;28;20060;-69
2022/07/31 10:51:49;;;;;;;3.25;2.40;;;;;;;26.43;36.25;98949.13;5067819;28;20358;-68
2022/07/31 10:54:17;;;;;;;4.93;2.83;;;;;;;26.35;37.08;98941.94;5085297;28;20093;-69
2022/07/31 10:56:47;;;;;;;4.45;2.90;;;;;;;26.26;36.89;98925.97;5085296;28;20066;-69
2022/07/31 10:59:14;;;;;;;5.97;3.15;;;;;;;26.12;37.42;98881.56;5085342;28;20040;-69
2022/07/31 11:01:48;;;;;;;4.28;2.85;;;;;;;26.58;36.41;98944.44;5085286;28;20208;-68
2022/07/31 11:04:26;;;;;;;4.00;3.05;;;;;;;26.60;36.34;98942.38;5085025;28;20060;-69
2022/07/31 11:06:54;;;;;;;4.05;2.78;;;;;;;26.23;37.47;98891.91;5084834;28;20107;-68
2022/07/31 11:09:24;;;;;;;3.97;2.95;;;;;;;26.46;36.89;98946.84;5085192;28;20098;-69
2022/07/31 11:11:54;;;;;;;5.05;2.40;;;;;;;26.45;37.45;98958.75;5085252;28;20305;-69
2022/07/31 11:14:32;;;;;;;4.82;3.20;;;;;;;26.47;37.09;98924.06;5067575;28;20204;-69
2022/07/31 11:16:59;;;;;;;3.67;2.70;;;;;;;26.34;37.52;98923.13;5084627;28;20060;-67
2022/07/31 11:19:37;;;;;;;4.53;2.95;;;;;;;26.54;36.33;98935.84;5084775;28;20102;-68
2022/07/31 11:22:11;;;;;;;4.60;2.97;;;;;;;25.88;36.16;98828.47;5086117;28;20086;-68
2022/07/31 11:24:38;;;;;;;3.17;2.65;;;;;;;26.37;37.31;98912.69;5088723;28;20056;-69
2022/07/31 11:27:07;;;;;;;3.63;2.40;;;;;;;26.42;37.02;98937.41;5088775;28;20044;-69
2022/07/31 11:29:37;;;;;;;5.40;2.70;;;;;;;26.20;37.07;98914.84;5089054;28;20056;-68
2022/07/31 11:32:14;;;;;;;4.25;2.97;;;;;;;26.40;36.48;98935.91;5089181;28;20040;-69
2022/07/31 11:34:47;;;;;;;4.45;3.05;;;;;;;26.28;36.69;98907.59;5088961;28;20067;-69
2022/07/31 11:37:17;;;;;;;4.13;2.90;;;;;;;26.04;36.57;98879.81;5089082;28;20040;-69
2022/07/31 11:39:44;;;;;;;5.80;3.78;;;;;;;26.05;37.49;98892.38;5088551;28;20074;-68
2022/07/31 11:42:13;;;;;;;6.38;5.00;;;;;;;26.40;36.62;98925.88;5088721;28;20060;-69
2022/07/31 11:44:41;;;;;;;5.82;3.92;;;;;;;26.36;36.60;98924.59;5088863;28;20251;-68